Terminal Aerodrome Forecast
Issued by NWS Mt. Holly, NJ

Home | Current Version | Previous Version | Text Only | Print | Product List | Glossary On
Versions: 1 2 3 4 5 6 7 8 9 10 11 12 13 14 15 16 17 18 19 20 21 22 23 24 25 26 27 28 29 30 31
000
FTUS41 KPHI 262351
TAFABE
TAF
KABE 262351Z 2700/2724 19008KT P6SM BKN080 BKN150
     FM270200 17003KT P6SM BKN070 OVC120
      TEMPO 2708/2710 5SM -SHRA BR
     FM271600 22009KT P6SM SCT050 PROB30 2720/2723 -SHRA BKN035=

USA.gov is the U.S. government's official web portal to all federal, state and local government web resources and services.